Moraga, California
Current Conditions -  °F | °C
As of 1:53 AM on Friday 31 Oct 2014 (Local Time) from KOAK Reporting Station
Overcast Overcast  
Wind Chill: 63°   Ceiling: 3600
Heat Index: 63°   Visibility: 10mi
Dew Point: 54°   Wind: 13mph
Humidity: 72%   Direction: 190°S
Pressure: 29.9"   Gusts: NA
Location:  37.83°N, 122.13°W
Report Text: KOAK 310853Z 19011KT 10SM BKN036 OVC055 17/12 A2990 RMK AO2 SLP125 T01720122 58001
Loading
Personal Weather Stations






























Interactive Weather Map
Tropical Storm Tracking
New forecast layout! Learn more

10-Day Weather Forecast

Advertisements
Track Severe Weather on mobile